Time;durP1;ratioP1;P1;durP2;ratioP2;P2;SDS_P1;SDS_P2;PMS_P1;PMS_P2;Temp;Humidity;BMP_temperature;BMP_pressure;BME280_temperature;BME280_humidity;BME280_pressure;Samples;Min_cycle;Max_cycle;Signal;HPM_P1;HPM_P2
2021/10/29 00:00:52;;;;;;;63.17;29.80;;;5.10;99.90;;;;;;4410257;28;655444;-77
2021/10/29 00:03:41;;;;;;;54.70;25.40;;;5.10;99.90;;;;;;4434664;28;656373;-77
2021/10/29 00:06:29;;;;;;;49.57;25.10;;;5.00;99.90;;;;;;4404540;28;655485;-77
2021/10/29 00:09:18;;;;;;;44.53;21.70;;;5.00;99.90;;;;;;4411755;28;655651;-77
2021/10/29 00:12:06;;;;;;;49.07;23.57;;;4.90;99.90;;;;;;4417441;28;655892;-77
2021/10/29 00:14:54;;;;;;;50.70;23.93;;;4.90;99.90;;;;;;4425066;28;656397;-77
2021/10/29 00:17:42;;;;;;;43.03;21.43;;;4.90;99.90;;;;;;4406151;28;657928;-77
2021/10/29 00:20:31;;;;;;;138.53;40.20;;;4.90;99.90;;;;;;4431986;28;656855;-77
2021/10/29 00:23:19;;;;;;;141.47;47.13;;;4.80;99.90;;;;;;4400113;28;657933;-78
2021/10/29 00:26:06;;;;;;;71.90;29.10;;;4.80;99.90;;;;;;4413484;28;658988;-77
2021/10/29 00:28:54;;;;;;;60.20;26.03;;;4.80;99.90;;;;;;4445665;28;656991;-77
2021/10/29 00:31:42;;;;;;;49.23;22.17;;;4.70;99.90;;;;;;4424728;28;656593;-77
2021/10/29 00:34:29;;;;;;;54.50;25.03;;;4.70;99.90;;;;;;4449517;28;657059;-77
2021/10/29 00:37:18;;;;;;;45.20;21.77;;;4.70;99.90;;;;;;4428280;28;656193;-78
2021/10/29 00:40:08;;;;;;;47.67;23.83;;;4.60;99.90;;;;;;4424237;28;656739;-78
2021/10/29 00:42:55;;;;;;;52.17;23.10;;;4.60;99.90;;;;;;4424416;28;656761;-77
2021/10/29 00:45:44;;;;;;;48.63;22.67;;;4.60;99.90;;;;;;4444980;28;657042;-77
2021/10/29 00:48:31;;;;;;;78.37;39.70;;;4.50;99.90;;;;;;4423507;28;656712;-77
2021/10/29 00:51:19;;;;;;;102.70;51.17;;;4.50;99.90;;;;;;4444156;28;657388;-78
2021/10/29 00:54:08;;;;;;;53.30;28.60;;;4.50;99.90;;;;;;4420203;28;658022;-78
2021/10/29 00:56:56;;;;;;;78.73;40.07;;;4.50;99.90;;;;;;4423375;28;657164;-78
2021/10/29 00:59:45;;;;;;;84.93;39.63;;;4.40;99.90;;;;;;4447657;28;657277;-78
2021/10/29 01:02:33;;;;;;;66.07;31.70;;;4.40;99.90;;;;;;4417252;28;657788;-78
2021/10/29 01:05:21;;;;;;;104.77;41.83;;;4.40;99.90;;;;;;4442615;28;656603;-78
2021/10/29 01:08:10;;;;;;;59.10;29.00;;;4.40;99.90;;;;;;4447391;28;657996;-78
2021/10/29 01:10:59;;;;;;;57.90;27.10;;;4.30;99.90;;;;;;4424084;28;657355;-78
2021/10/29 01:13:46;;;;;;;66.47;30.53;;;4.30;99.90;;;;;;4422812;28;656623;-78
2021/10/29 01:16:34;;;;;;;59.93;29.67;;;4.30;99.90;;;;;;4447779;28;656935;-78
2021/10/29 01:19:22;;;;;;;71.47;29.57;;;4.30;99.90;;;;;;4424632;28;656441;-78
2021/10/29 01:22:12;;;;;;;79.50;35.70;;;4.20;99.90;;;;;;4440875;28;658751;-78
2021/10/29 01:24:59;;;;;;;150.00;61.20;;;4.20;99.90;;;;;;4443241;28;656190;-78
2021/10/29 01:27:47;;;;;;;99.17;42.50;;;4.20;99.90;;;;;;4423885;28;658599;-78
2021/10/29 01:30:36;;;;;;;125.87;56.40;;;4.20;99.90;;;;;;4438473;28;656616;-78
2021/10/29 01:33:23;;;;;;;82.67;37.83;;;4.10;99.90;;;;;;4422444;28;658443;-79
2021/10/29 01:36:11;;;;;;;75.03;36.47;;;4.10;99.90;;;;;;4423995;28;656571;-79
2021/10/29 01:39:00;;;;;;;71.60;36.13;;;4.20;99.90;;;;;;4446456;28;657752;-78
2021/10/29 01:41:48;;;;;;;87.93;41.37;;;4.10;99.90;;;;;;4429629;28;656896;-78
2021/10/29 01:44:36;;;;;;;78.97;36.73;;;4.10;99.90;;;;;;4433576;28;657027;-78
2021/10/29 01:47:23;;;;;;;65.00;32.00;;;4.10;99.90;;;;;;4449427;28;657266;-78
2021/10/29 01:50:11;;;;;;;67.67;33.13;;;4.00;99.90;;;;;;4427765;28;656364;-79
2021/10/29 01:52:59;;;;;;;61.60;28.97;;;4.10;99.90;;;;;;4450151;28;657760;-78
2021/10/29 01:55:48;;;;;;;56.67;27.83;;;4.00;99.90;;;;;;4426974;28;656793;-78
2021/10/29 01:58:36;;;;;;;55.17;26.97;;;4.00;99.90;;;;;;4412394;28;656465;-77
2021/10/29 02:01:23;;;;;;;52.30;25.03;;;4.00;99.90;;;;;;4446294;28;656558;-78
2021/10/29 02:04:11;;;;;;;47.77;23.10;;;4.00;99.90;;;;;;4425815;28;656940;-78
2021/10/29 02:06:58;;;;;;;51.33;22.10;;;3.90;99.90;;;;;;4443841;28;657070;-78
2021/10/29 02:09:46;;;;;;;46.97;22.07;;;3.90;99.90;;;;;;4419616;28;656923;-77
2021/10/29 02:12:35;;;;;;;42.53;22.00;;;3.90;99.90;;;;;;4450976;28;657526;-77
2021/10/29 02:15:23;;;;;;;49.43;24.73;;;3.90;99.90;;;;;;4420571;28;657605;-78
2021/10/29 02:18:10;;;;;;;47.27;21.40;;;3.80;99.90;;;;;;4403482;28;656672;-78
2021/10/29 02:20:58;;;;;;;42.90;21.77;;;3.80;99.90;;;;;;4444015;28;657035;-78
2021/10/29 02:23:46;;;;;;;45.10;21.10;;;3.70;99.90;;;;;;4423714;28;657285;-77
2021/10/29 02:26:35;;;;;;;48.53;21.57;;;3.70;99.90;;;;;;4446244;28;657550;-78
2021/10/29 02:29:24;;;;;;;40.27;20.13;;;3.70;99.90;;;;;;4417967;28;657229;-78
2021/10/29 02:32:11;;;;;;;43.07;20.53;;;3.70;99.90;;;;;;4424780;28;656888;-78
2021/10/29 02:34:59;;;;;;;42.77;21.33;;;3.60;99.90;;;;;;4442771;28;656804;-78
2021/10/29 02:37:46;;;;;;;40.17;20.75;;;3.60;99.90;;;;;;4423564;28;656444;-78
2021/10/29 02:40:34;;;;;;;41.00;20.27;;;3.60;99.90;;;;;;4443728;28;657656;-78
2021/10/29 02:43:22;;;;;;;46.13;20.63;;;3.60;99.90;;;;;;4424391;28;656310;-77
2021/10/29 02:46:11;;;;;;;44.07;21.73;;;3.50;99.90;;;;;;4449722;28;656038;-77
2021/10/29 02:48:58;;;;;;;41.93;21.00;;;3.50;99.90;;;;;;4420709;28;657445;-77
2021/10/29 02:51:46;;;;;;;40.70;20.43;;;3.50;99.90;;;;;;4422891;28;657337;-77
2021/10/29 02:54:34;;;;;;;55.47;22.75;;;3.50;99.90;;;;;;4445200;28;657303;-77
2021/10/29 02:57:21;;;;;;;44.57;21.40;;;3.40;99.90;;;;;;4424483;28;656760;-78
2021/10/29 03:00:12;;;;;;;42.07;21.33;;;3.40;99.90;;;;;;4444281;28;656589;-77
2021/10/29 03:03:01;;;;;;;44.63;20.93;;;3.40;99.90;;;;;;4412810;28;656563;-77
2021/10/29 03:05:49;;;;;;;44.20;20.43;;;3.40;99.90;;;;;;4420430;28;656662;-78
2021/10/29 03:08:37;;;;;;;45.93;21.57;;;3.40;99.90;;;;;;4418930;28;656421;-78
2021/10/29 03:11:25;;;;;;;51.77;22.40;;;3.40;99.90;;;;;;4442324;28;657459;-77
2021/10/29 03:14:12;;;;;;;49.03;22.03;;;3.30;99.90;;;;;;4417476;28;657805;-77
2021/10/29 03:17:00;;;;;;;42.30;20.93;;;3.30;99.90;;;;;;4443197;28;656803;-78
2021/10/29 03:19:50;;;;;;;43.40;21.27;;;3.30;99.90;;;;;;4441975;28;657675;-77
2021/10/29 03:22:38;;;;;;;41.73;20.67;;;3.30;99.90;;;;;;4423866;28;657335;-78
2021/10/29 03:25:26;;;;;;;45.10;21.10;;;3.30;99.90;;;;;;4424853;28;657144;-77
2021/10/29 03:28:13;;;;;;;47.67;22.17;;;3.20;99.90;;;;;;4447166;28;656434;-77
2021/10/29 03:31:01;;;;;;;46.50;23.40;;;3.20;99.90;;;;;;4428352;28;656908;-77
2021/10/29 03:33:49;;;;;;;46.53;23.70;;;3.20;99.90;;;;;;4445336;28;656795;-77
2021/10/29 03:36:39;;;;;;;51.20;23.20;;;3.20;99.90;;;;;;4426024;28;657011;-78
2021/10/29 03:39:28;;;;;;;45.30;22.47;;;3.20;99.90;;;;;;4422547;28;656425;-78
2021/10/29 03:42:22;;;;;;;45.83;22.93;;;3.20;99.90;;;;;;4417868;28;656728;-77
2021/10/29 03:45:13;;;;;;;47.50;21.50;;;3.20;99.90;;;;;;4432531;28;656628;-77
2021/10/29 03:48:02;;;;;;;46.10;22.27;;;3.10;99.90;;;;;;4427896;28;656689;-77
2021/10/29 03:51:01;;;;;;;49.43;22.03;;;3.10;99.90;;;;;;4435526;28;656963;-78
2021/10/29 03:53:51;;;;;;;43.50;22.37;;;3.10;99.90;;;;;;4409180;28;657877;-77
2021/10/29 03:56:45;;;;;;;44.90;20.67;;;3.10;99.90;;;;;;4418069;28;656953;-77
2021/10/29 03:59:33;;;;;;;46.87;21.47;;;3.00;99.90;;;;;;4427778;28;656983;-77
2021/10/29 04:02:21;;;;;;;44.45;21.05;;;3.00;99.90;;;;;;4428328;28;656613;-78
2021/10/29 04:05:09;;;;;;;45.57;21.13;;;3.00;99.90;;;;;;4448116;28;657478;-77
2021/10/29 04:07:56;;;;;;;45.60;21.00;;;3.00;99.90;;;;;;4424188;28;656364;-77
2021/10/29 04:10:45;;;;;;;44.03;21.33;;;3.00;99.90;;;;;;4434437;28;657397;-77
2021/10/29 04:13:36;;;;;;;41.50;19.23;;;3.00;99.90;;;;;;4423797;28;657608;-77
2021/10/29 04:16:24;;;;;;;46.57;20.27;;;3.00;99.90;;;;;;4427530;28;656622;-77
2021/10/29 04:19:13;;;;;;;58.20;25.70;;;3.00;99.90;;;;;;4427039;28;656796;-77
2021/10/29 04:22:01;;;;;;;97.43;35.53;;;3.00;99.90;;;;;;4424098;28;656949;-77
2021/10/29 04:24:49;;;;;;;100.55;35.08;;;3.00;99.90;;;;;;4450596;28;657431;-76
2021/10/29 04:27:43;;;;;;;127.07;42.10;;;2.90;99.90;;;;;;4421796;28;657390;-77
2021/10/29 04:30:31;;;;;;;247.23;52.37;;;2.90;99.90;;;;;;4398945;28;658117;-76
2021/10/29 04:33:19;;;;;;;132.02;41.35;;;2.90;99.90;;;;;;4446841;28;658741;-76
2021/10/29 04:36:06;;;;;;;105.33;35.27;;;2.90;99.90;;;;;;4423273;28;657537;-77
2021/10/29 04:38:54;;;;;;;69.63;27.63;;;3.00;99.90;;;;;;4444451;28;658001;-78
2021/10/29 04:41:42;;;;;;;160.70;43.30;;;2.90;99.90;;;;;;4425651;28;656476;-76
2021/10/29 04:44:31;;;;;;;857.47;237.40;;;2.90;99.90;;;;;;4444692;28;659139;-76
2021/10/29 04:47:18;;;;;;;441.17;99.47;;;2.90;99.90;;;;;;4421980;28;659565;-77
2021/10/29 04:50:07;;;;;;;543.93;132.47;;;2.80;99.90;;;;;;4425295;28;658140;-77
2021/10/29 04:52:55;;;;;;;204.98;55.95;;;2.90;99.90;;;;;;4440869;28;658803;-76
2021/10/29 04:55:42;;;;;;;149.90;45.00;;;2.90;99.90;;;;;;4422262;28;658665;-76
2021/10/29 04:58:30;;;;;;;110.17;37.33;;;2.90;99.90;;;;;;4445590;28;657344;-76
2021/10/29 05:01:19;;;;;;;128.50;40.23;;;2.90;99.90;;;;;;4425640;28;657929;-76
2021/10/29 05:04:07;;;;;;;92.83;31.13;;;2.80;99.90;;;;;;4412129;28;657987;-77
2021/10/29 05:06:54;;;;;;;81.90;28.63;;;2.80;99.90;;;;;;4440247;28;656742;-77
2021/10/29 05:09:42;;;;;;;69.27;25.20;;;2.80;99.90;;;;;;4426607;28;656898;-76
2021/10/29 05:12:30;;;;;;;57.67;22.30;;;2.80;99.90;;;;;;4449681;28;656246;-76
2021/10/29 05:15:18;;;;;;;55.90;22.30;;;2.80;99.90;;;;;;4423309;28;657945;-76
2021/10/29 05:18:13;;;;;;;45.07;18.57;;;2.80;99.90;;;;;;4436863;28;656649;-77
2021/10/29 05:21:01;;;;;;;37.40;17.03;;;2.80;99.90;;;;;;4413063;28;656704;-77
2021/10/29 05:23:48;;;;;;;46.53;19.50;;;2.80;99.90;;;;;;4448785;28;657181;-76
2021/10/29 05:26:37;;;;;;;29.63;15.00;;;2.80;99.90;;;;;;4414617;28;656683;-77
2021/10/29 05:29:24;;;;;;;33.37;16.73;;;2.80;99.90;;;;;;4445187;28;656630;-76
2021/10/29 05:32:12;;;;;;;36.53;16.80;;;2.80;99.90;;;;;;4415800;28;656552;-76
2021/10/29 05:35:01;;;;;;;33.63;15.75;;;2.80;99.90;;;;;;4440779;28;656325;-76
2021/10/29 05:37:49;;;;;;;46.47;20.63;;;2.80;99.90;;;;;;4424541;28;657175;-76
2021/10/29 05:40:37;;;;;;;132.90;44.87;;;2.80;99.90;;;;;;4409957;28;656613;-75
2021/10/29 05:43:24;;;;;;;81.03;32.40;;;2.80;99.90;;;;;;4436425;28;657279;-74
2021/10/29 05:46:12;;;;;;;168.00;60.73;;;2.90;99.90;;;;;;4413970;28;657186;-76
2021/10/29 05:49:00;;;;;;;62.17;26.60;;;2.90;99.90;;;;;;4433896;28;658169;-77
2021/10/29 05:51:51;;;;;;;54.77;23.87;;;2.90;99.90;;;;;;4436259;28;657765;-76
2021/10/29 05:55:01;;;;;;;56.57;24.20;;;2.90;99.90;;;;;;4429589;28;657984;-76
2021/10/29 05:57:49;;;;;;;37.87;18.17;;;3.00;99.90;;;;;;4418615;28;656811;-75
2021/10/29 06:00:37;;;;;;;33.05;16.05;;;3.00;99.90;;;;;;4430416;28;656912;-75
2021/10/29 06:03:25;;;;;;;34.30;16.17;;;3.10;99.90;;;;;;4441383;28;657060;-76
2021/10/29 06:06:12;;;;;;;38.07;16.87;;;3.10;99.90;;;;;;4422953;28;657533;-76
2021/10/29 06:09:02;;;;;;;32.77;15.73;;;3.20;99.90;;;;;;4442955;28;656675;-76
2021/10/29 06:11:49;;;;;;;33.93;15.33;;;3.20;99.90;;;;;;4443764;28;656051;-75
2021/10/29 06:14:37;;;;;;;29.80;14.43;;;3.30;99.90;;;;;;4425102;28;658128;-77
2021/10/29 06:17:27;;;;;;;28.73;13.43;;;3.40;99.90;;;;;;4434407;28;657432;-75
2021/10/29 06:20:16;;;;;;;29.73;14.30;;;3.50;99.90;;;;;;4410701;28;656459;-75
2021/10/29 06:23:06;;;;;;;38.90;17.20;;;3.60;99.90;;;;;;4412494;28;657090;-75
2021/10/29 06:25:56;;;;;;;47.67;20.83;;;3.70;99.90;;;;;;4411003;28;657022;-76
2021/10/29 06:28:44;;;;;;;44.93;18.07;;;3.80;99.90;;;;;;4417697;28;657960;-75
2021/10/29 06:31:32;;;;;;;36.60;16.60;;;3.90;99.90;;;;;;4429072;28;656876;-76
2021/10/29 06:34:20;;;;;;;30.90;14.93;;;4.00;99.90;;;;;;4448702;28;656729;-76
2021/10/29 06:37:13;;;;;;;38.00;16.70;;;4.10;99.90;;;;;;4418150;28;657605;-76
2021/10/29 06:40:01;;;;;;;34.17;14.67;;;4.20;99.90;;;;;;4391405;28;657379;-76
2021/10/29 06:42:52;;;;;;;35.67;14.93;;;4.30;99.90;;;;;;4434432;28;657313;-75
2021/10/29 06:46:03;;;;;;;34.33;16.10;;;4.50;99.90;;;;;;4443924;28;657305;-76
2021/10/29 06:48:54;;;;;;;34.70;16.23;;;4.60;99.90;;;;;;4426992;28;656719;-76
2021/10/29 06:52:07;;;;;;;226.37;58.20;;;4.80;99.90;;;;;;4423921;28;657111;-76
2021/10/29 07:01:11;;;;;;;180.87;51.03;;;5.20;99.90;;;;;;4393375;28;658271;-75
2021/10/29 07:04:27;;;;;;;175.60;51.30;;;5.40;99.90;;;;;;4401941;28;657918;-75
2021/10/29 07:41:28;;;;;;;38.73;19.07;;;7.80;99.90;;;;;;4296679;29;657233;-75
2021/10/29 07:44:20;;;;;;;52.40;22.43;;;8.10;99.90;;;;;;4308614;29;656892;-76
2021/10/29 07:47:07;;;;;;;40.47;19.30;;;8.40;99.90;;;;;;4295348;29;657718;-76
2021/10/29 07:49:55;;;;;;;40.33;18.73;;;8.70;99.90;;;;;;4321009;28;656036;-75
2021/10/29 07:52:43;;;;;;;41.87;20.23;;;9.00;99.90;;;;;;4305784;28;657152;-75
2021/10/29 07:55:31;;;;;;;44.50;19.43;;;9.40;99.90;;;;;;4300915;29;656411;-75
2021/10/29 07:58:19;;;;;;;44.65;20.95;;;9.70;99.90;;;;;;4325472;29;656708;-76
2021/10/29 08:01:08;;;;;;;37.00;18.70;;;10.10;99.90;;;;;;4296272;29;656761;-75
2021/10/29 08:03:56;;;;;;;35.93;16.67;;;10.50;99.90;;;;;;4304564;29;657830;-76
2021/10/29 08:06:44;;;;;;;28.60;14.53;;;10.80;99.90;;;;;;4348397;28;658519;-76
2021/10/29 08:09:31;;;;;;;27.67;13.00;;;11.30;1.00;;;;;;4398851;28;657478;-76
2021/10/29 08:12:19;;;;;;;23.83;12.67;;;11.70;1.00;;;;;;4441196;28;656832;-76
2021/10/29 08:15:08;;;;;;;20.67;11.27;;;12.10;99.90;;;;;;4421295;28;656962;-76
2021/10/29 08:17:59;;;;;;;23.47;11.47;;;12.40;1.00;;;;;;4425448;28;657902;-77
2021/10/29 08:20:46;;;;;;;18.83;10.13;;;12.80;1.00;;;;;;4427072;28;656532;-76
2021/10/29 08:23:34;;;;;;;15.83;9.00;;;13.30;99.90;;;;;;4443507;28;656854;-76
2021/10/29 08:26:22;;;;;;;17.80;9.33;;;13.60;99.90;;;;;;4406385;28;656455;-76
2021/10/29 08:29:11;;;;;;;18.50;10.80;;;13.70;13.80;;;;;;4414787;28;657115;-77
2021/10/29 08:31:58;;;;;;;25.87;11.77;;;13.80;99.90;;;;;;4419200;28;657795;-76
2021/10/29 08:34:47;;;;;;;21.37;11.77;;;14.30;1.00;;;;;;4399953;28;657388;-77
2021/10/29 08:37:36;;;;;;;23.70;12.87;;;14.70;99.90;;;;;;4417806;28;656695;-77
2021/10/29 08:40:25;;;;;;;21.43;11.80;;;15.10;1.00;;;;;;4423584;28;659264;-76
2021/10/29 08:43:13;;;;;;;18.10;10.33;;;15.50;1.00;;;;;;4393712;28;657730;-77
2021/10/29 08:46:01;;;;;;;16.23;9.33;;;15.60;1.00;;;;;;4405719;28;656556;-77
2021/10/29 08:48:50;;;;;;;16.10;8.53;;;16.00;1.00;;;;;;4430487;28;655401;-76
2021/10/29 08:51:39;;;;;;;15.97;8.33;;;16.30;99.90;;;;;;4399828;28;656402;-75
2021/10/29 08:54:27;;;;;;;19.03;9.57;;;16.60;1.00;;;;;;4397807;28;657489;-76
2021/10/29 08:57:16;;;;;;;14.63;8.20;;;16.70;1.00;;;;;;4412834;28;655289;-77
2021/10/29 09:00:07;;;;;;;15.87;7.90;;;16.90;1.00;;;;;;4423978;28;655970;-76
2021/10/29 09:03:00;;;;;;;16.80;8.93;;;17.30;99.90;;;;;;4419534;28;655509;-76
2021/10/29 09:05:58;;;;;;;17.07;8.30;;;17.60;99.90;;;;;;4405822;28;657185;-76
2021/10/29 09:08:59;;;;;;;18.50;9.20;;;18.00;99.90;;;;;;4407607;28;657448;-76
2021/10/29 09:12:08;;;;;;;23.10;10.13;;;18.30;99.90;;;;;;4401508;28;657348;-76
2021/10/29 09:33:46;;;;;;;18.47;10.77;;;19.60;99.90;;;;;;4333591;28;657782;-77
2021/10/29 09:36:35;;;;;;;18.70;10.20;;;19.70;99.90;;;;;;4326158;28;658352;-76
2021/10/29 09:39:26;;;;;;;21.67;11.87;;;20.10;99.90;;;;;;4326364;28;659173;-76
2021/10/29 09:42:17;;;;;;;13.83;8.40;;;20.30;92.80;;;;;;4328409;28;657750;-77
2021/10/29 09:45:12;;;;;;;10.93;6.70;;;20.60;82.50;;;;;;4330824;28;657620;-77
2021/10/29 09:48:13;;;;;;;16.83;9.03;;;20.60;21.00;;;;;;4348403;28;656352;-76
2021/10/29 09:51:07;;;;;;;14.63;8.57;;;20.50;17.10;;;;;;4306212;28;657213;-76
2021/10/29 09:54:03;;;;;;;19.60;9.18;;;20.70;17.10;;;;;;4320177;28;657138;-76
2021/10/29 09:56:56;;;;;;;17.10;8.83;;;20.80;16.80;;;;;;4309440;28;657451;-77
2021/10/29 09:59:43;;;;;;;16.37;8.63;;;21.00;1.00;;;;;;4332335;28;656497;-76
2021/10/29 10:02:31;;;;;;;14.33;8.73;;;20.90;1.00;;;;;;4331757;28;655927;-77
2021/10/29 10:05:22;;;;;;;20.07;10.67;;;20.60;1.00;;;;;;4424151;28;655491;-76
2021/10/29 10:08:11;;;;;;;22.20;11.07;;;20.90;1.00;;;;;;4405259;28;657397;-76
2021/10/29 10:10:59;;;;;;;21.13;10.60;;;21.10;1.00;;;;;;4398631;28;657501;-76
2021/10/29 10:13:49;;;;;;;12.13;6.37;;;21.70;1.00;;;;;;4402626;28;656546;-76
2021/10/29 10:16:39;;;;;;;19.80;10.90;;;21.50;1.00;;;;;;4399826;28;655747;-76
2021/10/29 10:19:26;;;;;;;16.83;8.63;;;21.70;1.00;;;;;;4405402;28;656353;-76
2021/10/29 10:22:16;;;;;;;14.43;8.73;;;22.30;1.00;;;;;;4424734;28;655710;-76
2021/10/29 10:25:08;;;;;;;15.47;7.63;;;22.00;1.00;;;;;;4407241;28;655560;-76
2021/10/29 10:28:29;;;;;;;15.97;8.50;;;22.40;1.00;;;;;;4377132;28;655507;-76
2021/10/29 10:41:28;;;;;;;11.43;6.73;;;23.40;1.00;;;;;;4407301;28;656167;-77
2021/10/29 10:44:43;;;;;;;14.13;8.07;;;23.80;1.00;;;;;;4401518;28;656141;-76
2021/10/29 10:47:37;;;;;;;13.40;7.90;;;24.20;1.00;;;;;;4389579;28;656779;-76
2021/10/29 10:50:30;;;;;;;13.23;8.20;;;24.50;1.00;;;;;;4407188;28;655397;-76
2021/10/29 10:53:26;;;;;;;16.02;8.80;;;24.70;1.00;;;;;;4389890;28;656242;-76
2021/10/29 10:56:32;;;;;;;16.25;9.32;;;24.80;1.00;;;;;;4408006;28;655607;-76
2021/10/29 10:59:41;;;;;;;17.75;9.65;;;25.00;1.00;;;;;;4426389;28;655820;-76
2021/10/29 11:05:59;;;;;;;21.67;10.90;;;25.50;1.00;;;;;;4410086;28;656586;-76
2021/10/29 11:11:56;;;;;;;17.52;10.25;;;25.60;1.00;;;;;;4406180;28;656899;-77
2021/10/29 11:14:44;;;;;;;23.77;10.48;;;25.40;1.00;;;;;;4400952;28;658142;-77
2021/10/29 11:17:46;;;;;;;15.57;9.75;;;25.50;1.00;;;;;;4411859;28;656738;-77
2021/10/29 11:20:46;;;;;;;18.98;10.23;;;26.10;1.00;;;;;;4407955;28;655979;-77
2021/10/29 11:23:34;;;;;;;20.42;11.13;;;26.60;1.00;;;;;;4406637;28;657524;-77
2021/10/29 11:26:25;;;;;;;21.90;11.70;;;26.80;1.00;;;;;;4407366;28;657659;-77
2021/10/29 11:29:13;;;;;;;21.95;12.63;;;26.90;1.00;;;;;;4406177;28;658114;-77
2021/10/29 11:32:01;;;;;;;22.48;11.77;;;26.90;1.00;;;;;;4406035;28;656493;-78
2021/10/29 11:34:50;;;;;;;18.08;10.65;;;27.00;1.00;;;;;;4430219;28;656389;-77
2021/10/29 11:37:39;;;;;;;25.05;10.70;;;27.20;1.00;;;;;;4403695;28;658494;-77
2021/10/29 11:40:27;;;;;;;24.73;11.98;;;27.00;1.00;;;;;;4405825;28;656726;-77
2021/10/29 11:43:21;;;;;;;24.80;11.70;;;27.40;1.00;;;;;;4424838;28;656550;-77
2021/10/29 11:46:11;;;;;;;18.47;10.93;;;27.50;1.00;;;;;;4395853;28;657043;-77
2021/10/29 11:49:01;;;;;;;19.88;11.07;;;28.20;1.00;;;;;;4399977;28;656933;-77
2021/10/29 11:51:49;;;;;;;16.53;10.33;;;27.80;1.00;;;;;;4399771;28;657273;-77
2021/10/29 11:54:41;;;;;;;19.53;10.30;;;27.70;1.00;;;;;;4407079;28;656758;-77
2021/10/29 11:57:42;;;;;;;17.10;10.23;;;27.50;1.00;;;;;;4400327;28;656734;-78
2021/10/29 12:00:43;;;;;;;17.42;9.32;;;27.80;1.00;;;;;;4408068;28;656897;-77
2021/10/29 12:09:45;;;;;;;18.08;8.85;;;28.10;1.00;;;;;;4336370;28;655543;-77
2021/10/29 12:12:33;;;;;;;14.95;9.10;;;28.70;1.00;;;;;;4338959;28;656776;-77
2021/10/29 12:15:24;;;;;;;14.38;8.80;;;29.30;1.00;;;;;;4340624;28;656116;-77
2021/10/29 12:18:12;;;;;;;15.03;9.53;;;30.00;1.00;;;;;;4332248;28;655676;-77
2021/10/29 12:21:00;;;;;;;19.60;8.70;;;31.10;1.00;;;;;;4354330;28;655717;-77
2021/10/29 12:23:50;;;;;;;13.10;8.35;;;31.40;1.00;;;;;;4339683;28;656310;-78
2021/10/29 12:26:40;;;;;;;18.10;8.18;;;31.80;1.00;;;;;;4335563;28;656756;-77
2021/10/29 12:29:32;;;;;;;19.45;8.82;;;32.30;1.00;;;;;;4329769;28;656916;-77
2021/10/29 12:32:40;;;;;;;12.93;8.38;;;32.80;1.00;;;;;;4331499;28;655658;-77
2021/10/29 13:04:03;;;;;;;19.80;7.85;;;36.90;1.00;;;;;;4430002;27;650381;-76
2021/10/29 13:06:51;;;;;;;16.02;8.02;;;36.80;1.00;;;;;;4442580;27;650823;-77
2021/10/29 13:09:40;;;;;;;12.95;7.22;;;37.20;1.00;;;;;;4447355;27;650259;-75
2021/10/29 13:12:37;;;;;;;13.43;7.55;;;37.10;1.00;;;;;;4434283;27;650723;-77
2021/10/29 13:15:27;;;;;;;12.50;6.93;;;37.00;1.00;;;;;;4403775;27;652008;-75
2021/10/29 13:18:19;;;;;;;17.67;8.70;;;36.90;1.00;;;;;;4389294;27;652239;-75
2021/10/29 13:24:29;;;;;;;14.38;6.50;;;36.50;1.00;;;;;;4431758;28;651850;-75
2021/10/29 13:36:53;;;;;;;12.10;5.93;;;38.10;1.00;;;;;;4407475;28;653524;-76
2021/10/29 13:52:21;;;;;;;11.25;6.53;;;38.30;1.00;;;;;;4340725;28;653120;-75
2021/10/29 13:55:19;;;;;;;13.38;5.60;;;39.10;1.00;;;;;;4383462;28;653402;-75
2021/10/29 13:58:35;;;;;;;11.48;6.15;;;38.90;1.00;;;;;;4397899;28;653805;-75
2021/10/29 14:29:21;;;;;;;16.88;9.13;;;36.60;1.00;;;;;;4356694;28;652439;-75
2021/10/29 14:32:15;;;;;;;20.27;10.75;;;36.40;1.00;;;;;;4358004;28;652305;-76
2021/10/29 14:35:03;;;;;;;19.77;9.30;;;36.10;1.00;;;;;;4335228;28;653671;-75
2021/10/29 14:38:05;;;;;;;22.83;9.40;;;35.50;1.00;;;;;;4363008;28;652823;-76
2021/10/29 14:40:56;;;;;;;15.98;7.32;;;34.80;1.00;;;;;;4360171;28;652352;-76
2021/10/29 14:43:47;;;;;;;17.33;7.85;;;33.50;1.00;;;;;;4394071;28;654001;-75
2021/10/29 14:46:44;;;;;;;54.08;15.95;;;32.60;1.00;;;;;;4394998;28;652419;-74
2021/10/29 14:49:45;;;;;;;37.30;12.00;;;31.40;1.00;;;;;;4396565;28;653441;-75
2021/10/29 15:02:20;;;;;;;50.97;16.23;;;22.80;1.00;;;;;;4424043;27;654205;-75
2021/10/29 15:05:28;;;;;;;42.57;15.83;;;21.40;1.00;;;;;;4423829;27;654956;-76
2021/10/29 15:17:48;;;;;;;24.63;11.43;;;16.90;1.00;;;;;;4406043;27;654026;-76
2021/10/29 15:29:56;;;;;;;35.37;16.23;;;14.70;1.00;;;;;;4434525;27;653351;-75
2021/10/29 15:33:10;;;;;;;34.97;15.97;;;14.30;1.00;;;;;;4435869;27;654297;-75
2021/10/29 15:42:23;;;;;;;30.10;15.20;;;13.30;1.00;;;;;;4408718;27;653433;-75
2021/10/29 15:45:16;;;;;;;32.27;16.30;;;12.90;1.00;;;;;;4401069;27;654884;-75
2021/10/29 15:48:08;;;;;;;43.70;18.97;;;12.60;1.00;;;;;;4414341;27;655380;-76
2021/10/29 15:50:58;;;;;;;30.97;15.33;;;12.30;1.00;;;;;;4395587;27;655130;-75
2021/10/29 15:53:46;;;;;;;27.80;11.90;;;12.10;1.00;;;;;;4401582;27;655755;-75
2021/10/29 15:56:37;;;;;;;29.77;13.53;;;11.90;1.00;;;;;;4462084;27;655609;-74
2021/10/29 15:59:33;;;;;;;27.93;13.33;;;11.60;9.00;;;;;;4455198;27;653946;-74
2021/10/29 16:02:33;;;;;;;42.03;15.30;;;11.40;99.90;;;;;;4455482;27;654999;-75
2021/10/29 16:17:42;;;;;;;240.67;70.83;;;10.60;99.90;;;;;;4461185;27;655398;-75
2021/10/29 16:20:29;;;;;;;166.67;54.73;;;10.40;1.00;;;;;;4479764;27;656629;-75
2021/10/29 16:23:18;;;;;;;150.03;53.67;;;10.30;1.00;;;;;;4460063;27;655615;-75
2021/10/29 16:26:10;;;;;;;126.43;46.03;;;10.20;99.90;;;;;;4469545;27;655600;-75
2021/10/29 16:28:57;;;;;;;175.23;54.70;;;10.10;1.00;;;;;;4453542;27;657527;-75
2021/10/29 16:31:46;;;;;;;176.60;57.40;;;9.90;1.00;;;;;;4488651;27;655787;-75
2021/10/29 16:34:34;;;;;;;163.77;59.00;;;9.70;99.90;;;;;;4465845;27;655411;-75
2021/10/29 16:37:22;;;;;;;144.30;52.33;;;9.60;99.90;;;;;;4464945;27;655452;-75
2021/10/29 16:40:11;;;;;;;143.57;49.97;;;9.50;99.90;;;;;;4482799;27;655594;-75
2021/10/29 16:43:00;;;;;;;115.17;40.73;;;9.40;1.00;;;;;;4460536;27;655629;-75
2021/10/29 16:45:48;;;;;;;90.67;34.00;;;9.30;99.90;;;;;;4454338;28;655137;-66
2021/10/29 16:48:36;;;;;;;96.60;35.95;;;9.20;1.00;;;;;;4467745;27;654577;-66
2021/10/29 16:51:25;;;;;;;126.00;43.50;;;9.10;99.90;;;;;;4485421;27;653783;-66
2021/10/29 16:54:12;;;;;;;158.27;49.73;;;9.00;1.00;;;;;;4456593;28;656933;-66
2021/10/29 16:57:00;;;;;;;202.33;68.83;;;8.90;1.00;;;;;;4455117;27;655693;-66
2021/10/29 16:59:49;;;;;;;179.33;59.90;;;8.80;99.90;;;;;;4406757;27;655363;-66
2021/10/29 17:02:37;;;;;;;106.27;35.87;;;8.80;99.90;;;;;;4432513;27;655822;-66
2021/10/29 17:05:25;;;;;;;158.03;53.50;;;8.60;1.00;;;;;;4438245;27;655398;-74
2021/10/29 17:08:15;;;;;;;201.00;69.27;;;8.50;1.00;;;;;;4395271;27;655704;-74
2021/10/29 17:11:03;;;;;;;145.50;49.63;;;8.50;1.00;;;;;;4398638;27;654850;-74
2021/10/29 17:13:52;;;;;;;173.63;57.13;;;8.40;1.00;;;;;;4465009;27;655304;-74
2021/10/29 17:16:42;;;;;;;274.23;86.90;;;8.40;29.60;;;;;;4448739;27;655028;-75
2021/10/29 17:19:30;;;;;;;225.57;67.43;;;8.30;79.50;;;;;;4455998;27;655868;-75
2021/10/29 17:22:17;;;;;;;134.37;49.83;;;8.30;53.50;;;;;;4422551;27;656388;-74
2021/10/29 17:25:07;;;;;;;335.23;112.47;;;8.20;1.00;;;;;;4431893;27;655368;-74
2021/10/29 17:27:54;;;;;;;236.40;82.63;;;8.10;1.00;;;;;;4435276;27;655530;-73
2021/10/29 17:30:42;;;;;;;246.30;91.23;;;8.00;1.00;;;;;;4431720;27;656505;-75
2021/10/29 17:33:32;;;;;;;260.47;107.43;;;7.90;1.00;;;;;;4434839;27;654482;-74
2021/10/29 17:36:21;;;;;;;242.07;106.70;;;7.90;48.70;;;;;;4442167;27;655692;-74
2021/10/29 17:39:08;;;;;;;233.30;101.67;;;7.80;99.90;;;;;;4420152;27;656813;-74
2021/10/29 17:41:56;;;;;;;170.40;66.13;;;7.80;99.90;;;;;;4413717;27;656817;-74
2021/10/29 17:44:43;;;;;;;160.33;59.70;;;7.70;99.90;;;;;;4463518;27;656720;-74
2021/10/29 17:47:31;;;;;;;136.20;53.80;;;7.60;99.90;;;;;;4438450;27;655927;-74
2021/10/29 17:50:20;;;;;;;109.97;42.60;;;7.60;99.90;;;;;;4433555;27;655707;-74
2021/10/29 17:53:08;;;;;;;97.63;35.93;;;7.50;99.90;;;;;;4444046;27;657553;-74